Alyeska Resort
Max's Hourly Weather Roundup
ALYESKA_MAX 10/20/2014
Click Here for Graph

        DATE  TIME   Air  Wind  Wind  Wind  BATT   Rel
                    Temp   Spd   Dir  Gust  Volt  Hum%
                      F   MPH   AVG   MPH   AVG   AVG

  10/20/2014 17:00    30    16    99    35 13.73    95
  10/20/2014 16:00    30    12    85    31 13.68    98
  10/20/2014 15:00    30    10   104    29 13.73    93
  10/20/2014 14:00    31    15   110    35 13.64    95
  10/20/2014 13:00    32     7   183    24 13.74   100
  10/20/2014 12:00    32     1   176     5 13.43   100
  10/20/2014 11:00    30     0   145     0 12.87   100
  10/20/2014 10:00    29     0   149     0 12.74   100
  10/20/2014 09:00    29     0   170     0 12.72   100
  10/20/2014 08:00    29     0    90     0 12.72   100
  10/20/2014 07:00    29     0   195     0 12.72   100
  10/20/2014 06:00    30     0   193     0 12.73   100
  10/20/2014 05:00    30     0   138     0 12.73   100
  10/20/2014 04:00    30     0   143     0 12.74   100
  10/20/2014 03:00    29     0    99     0 12.76   100
  10/20/2014 02:00    29     0   116     0 12.78   100
  10/20/2014 01:00    28     0   206     0 12.80   100
  10/19/2014 24:00    28     0   190     0 12.83   100
  10/19/2014 23:00    28     0   186     0 12.87   100
  10/19/2014 22:00    28     0   257     0 12.91   100
  10/19/2014 21:00    28     0           2 12.96   100
  10/19/2014 20:00    29     2   235     5 13.03   100
  10/19/2014 19:00    30     4    95    11 13.16    94
  10/19/2014 18:00    32     2   149    10 13.43    89


Click Here for Graph